NCAR-RAP Real-Time Weather Data

Output produced by METARs form (14 October 2019  23:24 UTC)
found at http://weather.rap.ucar.edu/surface/
 
KRNO 142255Z 00000KT 10SM FEW200 22/M11 A3002 RMK AO2 SLP139 HZ ALQDS FU ALF DSNT S THRU SW T02171106 $
KRNO 142155Z 00000KT 10SM FEW200 22/M07 A3003 RMK AO2 SLP135 HZ ALQDS FU ALF DSNT S THRU SW T02171072 $
KRNO 142055Z 01003KT 10SM FEW200 20/M07 A3004 RMK AO2 SLP146 HZ ALQDS T02001067 58016 $
KRNO 141955Z 00000KT 10SM FEW200 18/M07 A3007 RMK AO2 SLP155 HZ ALQDS T01831072 $
KRNO 141855Z 00000KT 10SM FEW200 16/M06 A3009 RMK AO2 SLP165 HZ FU ALQDS T01561061 $
KRNO 141755Z 00000KT 10SM FEW200 13/M06 A3010 RMK AO2 SLP168 HZ FU ALQDS T01281056 10128 20011 50002 $
KRNO 141655Z 00000KT 10SM CLR 09/M05 A3010 RMK AO2 SLP171 HZ FU ALQDS T00941050 $
KRNO 141555Z 00000KT 10SM CLR 06/M06 A3010 RMK AO2 SLP172 HZ FU ALQDS T00611056 $
KRNO 141455Z 00000KT 10SM CLR 03/M05 A3009 RMK AO2 SLP171 HZ ALQDS T00281050 53016 $
KRNO 141355Z 18003KT 10SM CLR 01/M06 A3007 RMK AO2 SLP167 HZ ALQDS T00111056 $
KRNO 141255Z 00000KT 10SM CLR 03/M05 A3005 RMK AO2 SLP152 T00281050 $
KRNO 141155Z 00000KT 10SM CLR 03/M04 A3004 RMK AO2 SLP143 T00331044 10100 20022 51006 $
KRNO 141055Z 00000KT 10SM CLR 04/M05 A3003 RMK AO2 SLP140 T00391050 $
KRNO 140955Z 28003KT 10SM CLR 07/M05 A3003 RMK AO2 SLP137 T00671050 $
KRNO 140855Z 00000KT 10SM CLR 06/M06 A3002 RMK AO2 SLP135 T00561056 51009 $
KRNO 140755Z 18005KT 10SM CLR 06/M05 A3001 RMK AO2 SLP134 T00611050 402280028 $
KRNO 140655Z 00000KT 10SM CLR 08/M06 A3000 RMK AO2 SLP131 T00781056 $
KRNO 140555Z VRB04KT 10SM CLR 09/M07 A2999 RMK AO2 SLP129 T00891067 10217 20089 51015 $
KRNO 140455Z 35004KT 10SM CLR 11/M06 A2998 RMK AO2 SLP129 T01111061 $
KRNO 140355Z 36005KT 10SM FEW180 14/M06 A2996 RMK AO2 SLP122 T01391061 $
KRNO 140255Z 35008G19KT 10SM FEW180 16/M07 A2994 RMK AO2 SLP117 T01561072 53016 $
KRNO 140155Z 35014KT 10SM FEW070 FEW180 17/M07 A2991 RMK AO2 SLP108 FU FEW070 ACSL DSNT NE AND W THRU N FU DSNT S T01671072 $
KRNO 140055Z 29011G19KT 10SM FEW180 19/M12 A2989 RMK AO2 SLP096 ACSL DSNT NE THRU E AND W THRU NW FU ALF DSNT SE THRU S T01891117 $
KRNO 132355Z 33013KT 10SM FEW170 SCT220 22/M09 A2988 RMK AO2 SLP088 ACSL DSNT NE THRU E HZ ALQDS FU DSNT S T02171094 10228 20139 56004 $
KRNO 132255Z 00000KT 10SM FEW150 SCT220 22/M11 A2988 RMK AO2 SLP088 ACSL DSNT E HZ ALQDS T02171106 $
KRNO 132155Z 14004KT 10SM SCT150 BKN250 22/M11 A2988 RMK AO2 SLP087 HZ ALQDS T02171106 $
KRNO 132055Z VRB04KT 10SM SCT150 BKN250 21/M11 A2990 RMK AO2 SLP095 HZ ALQDS T02061111 58020 $
KRNO 131955Z 00000KT 10SM FEW150 BKN250 19/M11 A2992 RMK AO2 SLP102 HZ ALQDS T01941106 $
KRNO 131855Z 00000KT 10SM FEW120 BKN200 17/M07 A2995 RMK AO2 SLP114 HZ ALQDS T01721067 $
KRNO 131755Z 00000KT 10SM SCT120 SCT250 14/M06 A2997 RMK AO2 SLP123 HZ ALQDS T01391056 10139 20028 58006 $
KRNO 131655Z 00000KT 10SM SCT120 SCT250 10/M06 A2998 RMK AO2 SLP130 HZ ALQDS T01001061 $
KRNO 131555Z 00000KT 10SM SCT120 SCT250 07/M06 A2999 RMK AO2 SLP136 HZ ALQDS T00721056 $
KRNO 131455Z 00000KT 10SM SCT120 SCT250 04/M04 A2999 RMK AO2 SLP134 HZ ALQDS T00391044 53007 $
KRNO 131355Z 00000KT 10SM FEW120 SCT250 03/M05 A2998 RMK AO2 SLP128 FU ALF DSNT SW THRU NW T00281050 $
KRNO 131255Z 00000KT 10SM SCT250 04/M05 A2997 RMK AO2 SLP123 T00391050 $
KRNO 131155Z 32003KT 10SM SCT250 05/M06 A2996 RMK AO2 SLP116 T00501056 10094 20044 56004 $
KRNO 131055Z 00000KT 10SM SCT250 05/M05 A2996 RMK AO2 SLP116 T00501050 $
KRNO 130955Z 00000KT 10SM SCT250 04/M06 A2997 RMK AO2 SLP121 T00441056 $
KRNO 130855Z 00000KT 10SM SCT250 04/M06 A2998 RMK AO2 SLP124 T00441061 55002 $
KRNO 130755Z 00000KT 10SM SCT250 07/M06 A2997 RMK AO2 SLP123 T00671061 402221011 $
KRNO 130655Z 00000KT 10SM SCT250 07/M07 A2997 RMK AO2 SLP126 T00721067 $
KRNO 130555Z 20003KT 10SM SCT250 08/M08 A2998 RMK AO2 SLP136 T00781078 10217 20078 53007 $
KRNO 130455Z 00000KT 10SM SCT250 11/M08 A2997 RMK AO2 SLP132 T01111078 $
KRNO 130355Z 27003KT 10SM FEW250 12/M07 A2997 RMK AO2 SLP132 T01221072 $
KRNO 130255Z 28003KT 10SM FEW250 16/M12 A2996 RMK AO2 SLP129 T01561117 53003 $
KRNO 130155Z 00000KT 10SM FEW250 18/M13 A2995 RMK AO2 SLP126 FU ALF DSNT S THRU SW T01781133 $
KRNO 130055Z 10007KT 10SM FEW250 19/M12 A2994 RMK AO2 SLP121 T01941122 $
KRNO 122355Z 00000KT 10SM FEW250 22/M11 A2995 RMK AO2 SLP118 FU ALF DSNT SE THRU W HZ S THRU NW T02171106 10222 20100 56017 $